createdAt,value
2018-05-18T00:00:35.573Z,18.74
2018-05-18T00:01:35.466Z,18.72
2018-05-18T00:02:35.291Z,18.76
2018-05-18T00:03:35.396Z,18.76
2018-05-18T00:04:35.272Z,18.76
2018-05-18T00:05:35.422Z,18.72
2018-05-18T00:06:35.306Z,18.73
2018-05-18T00:07:35.326Z,18.76
2018-05-18T00:08:35.460Z,18.73
2018-05-18T00:09:35.559Z,18.73
2018-05-18T00:10:35.371Z,18.74
2018-05-18T00:11:35.238Z,18.72
2018-05-18T00:12:35.337Z,18.72
2018-05-18T00:13:35.466Z,18.73
2018-05-18T00:14:35.289Z,18.73
2018-05-18T00:15:35.705Z,18.73
2018-05-18T00:16:35.312Z,18.73
2018-05-18T00:17:35.242Z,18.72
2018-05-18T00:18:35.351Z,18.74
2018-05-18T00:19:35.419Z,18.76
2018-05-18T00:20:35.451Z,18.76
2018-05-18T00:21:35.472Z,18.74
2018-05-18T00:22:35.410Z,18.76
2018-05-18T00:23:35.335Z,18.74
2018-05-18T00:24:35.464Z,18.73
2018-05-18T00:25:35.290Z,18.73
2018-05-18T00:26:35.463Z,18.73
2018-05-18T00:27:35.400Z,18.73
2018-05-18T00:28:35.343Z,18.74
2018-05-18T00:29:35.352Z,18.73
2018-05-18T00:30:35.319Z,18.73
2018-05-18T00:31:35.308Z,18.76
2018-05-18T00:32:35.193Z,18.73
2018-05-18T00:33:35.270Z,18.76
2018-05-18T00:34:35.457Z,18.74
2018-05-18T00:35:35.239Z,18.73
2018-05-18T00:36:35.418Z,18.73
2018-05-18T00:37:35.467Z,18.73
2018-05-18T00:38:35.412Z,18.76
2018-05-18T00:39:35.274Z,18.74
2018-05-18T00:40:35.424Z,18.72
2018-05-18T00:41:35.430Z,18.74
2018-05-18T00:42:35.261Z,18.72
2018-05-18T00:43:35.356Z,18.73
2018-05-18T00:44:35.412Z,18.72
2018-05-18T00:45:35.393Z,18.73
2018-05-18T00:46:35.403Z,18.71
2018-05-18T00:47:35.326Z,18.73
2018-05-18T00:48:35.550Z,18.72
2018-05-18T00:49:35.485Z,18.73
2018-05-18T00:50:35.341Z,18.71
2018-05-18T00:51:35.377Z,18.73
2018-05-18T00:52:35.194Z,18.73
2018-05-18T00:53:35.337Z,18.72
2018-05-18T00:54:35.603Z,18.72
2018-05-18T00:55:35.230Z,18.74
2018-05-18T00:56:35.352Z,18.72
2018-05-18T00:57:35.367Z,18.74
2018-05-18T00:58:35.483Z,18.73
2018-05-18T00:59:35.329Z,18.74
2018-05-18T01:00:35.276Z,18.73
2018-05-18T01:01:35.222Z,18.72
2018-05-18T01:02:35.480Z,18.72
2018-05-18T01:03:35.447Z,18.73
2018-05-18T01:04:35.390Z,18.72
2018-05-18T01:05:35.401Z,18.72
2018-05-18T01:06:36.046Z,18.72
2018-05-18T01:07:35.897Z,18.72
2018-05-18T01:08:36.053Z,18.72
2018-05-18T01:09:36.345Z,18.74
2018-05-18T01:10:36.084Z,18.74
2018-05-18T01:11:36.162Z,18.72
2018-05-18T01:12:36.185Z,18.72
2018-05-18T01:13:36.150Z,18.72
2018-05-18T01:14:36.024Z,18.71
2018-05-18T01:15:36.165Z,18.72
2018-05-18T01:16:35.896Z,18.73
2018-05-18T01:17:37.430Z,18.71
2018-05-18T01:18:36.239Z,18.71
2018-05-18T01:19:35.284Z,18.71
2018-05-18T01:20:35.792Z,18.71
2018-05-18T01:21:35.264Z,18.72
2018-05-18T01:22:36.017Z,18.71
2018-05-18T01:23:35.965Z,18.72
2018-05-18T01:24:36.072Z,18.7
2018-05-18T01:25:36.134Z,18.71
2018-05-18T01:26:37.393Z,18.7
2018-05-18T01:27:36.039Z,18.71
2018-05-18T01:28:35.210Z,18.71
2018-05-18T01:29:35.911Z,18.73
2018-05-18T01:30:35.309Z,18.71
2018-05-18T01:31:35.718Z,18.71
2018-05-18T01:32:36.121Z,18.71
2018-05-18T01:33:36.111Z,18.71
2018-05-18T01:34:35.872Z,18.69
2018-05-18T01:35:36.874Z,18.72
2018-05-18T01:36:36.070Z,18.7
2018-05-18T01:37:35.335Z,18.7
2018-05-18T01:38:35.865Z,18.68
2018-05-18T01:39:35.872Z,18.7
2018-05-18T01:40:36.015Z,18.72
2018-05-18T01:41:35.849Z,18.69
2018-05-18T01:42:35.818Z,18.7
2018-05-18T01:43:36.101Z,18.7
2018-05-18T01:44:36.043Z,18.71
2018-05-18T01:45:36.592Z,18.69
2018-05-18T01:46:36.267Z,18.7
2018-05-18T01:47:35.309Z,18.69
2018-05-18T01:48:36.175Z,18.71
2018-05-18T01:49:36.208Z,18.7
2018-05-18T01:50:35.205Z,18.7
2018-05-18T01:51:36.119Z,18.69
2018-05-18T01:52:36.307Z,18.71
2018-05-18T01:53:36.043Z,18.7
2018-05-18T01:54:35.396Z,18.69
2018-05-18T01:55:35.173Z,18.7
2018-05-18T01:56:35.832Z,18.7
2018-05-18T01:57:35.971Z,18.71
2018-05-18T01:58:35.283Z,18.68
2018-05-18T01:59:36.009Z,18.71
2018-05-18T02:00:36.228Z,18.7
2018-05-18T02:01:35.999Z,18.7
2018-05-18T02:02:36.113Z,18.7
2018-05-18T02:03:36.072Z,18.69
2018-05-18T02:04:35.237Z,18.67
2018-05-18T02:05:35.642Z,18.68
2018-05-18T02:06:35.334Z,18.7
2018-05-18T02:07:35.421Z,18.69
2018-05-18T02:08:35.310Z,18.7
2018-05-18T02:09:35.277Z,18.68
2018-05-18T02:10:37.935Z,18.7
2018-05-18T02:11:35.423Z,18.7
2018-05-18T02:12:35.581Z,18.69
2018-05-18T02:13:35.425Z,18.68
2018-05-18T02:14:35.271Z,18.69
2018-05-18T02:15:35.394Z,18.69
2018-05-18T02:16:35.281Z,18.69
2018-05-18T02:17:35.398Z,18.67
2018-05-18T02:18:35.295Z,18.68
2018-05-18T02:19:35.367Z,18.69
2018-05-18T02:20:35.448Z,18.68
2018-05-18T02:21:35.326Z,18.68
2018-05-18T02:22:35.381Z,18.69
2018-05-18T02:23:35.382Z,18.69
2018-05-18T02:24:35.272Z,18.67
2018-05-18T02:25:37.729Z,18.67
2018-05-18T02:26:35.296Z,18.66
2018-05-18T02:27:35.412Z,18.67
2018-05-18T02:28:37.572Z,18.67
2018-05-18T02:29:35.327Z,18.67
2018-05-18T02:30:35.438Z,18.67
2018-05-18T02:31:35.422Z,18.68
2018-05-18T02:32:35.439Z,18.66
2018-05-18T02:33:35.456Z,18.67
2018-05-18T02:34:37.554Z,18.67
2018-05-18T02:35:35.308Z,18.67
2018-05-18T02:36:35.500Z,18.66
2018-05-18T02:37:35.381Z,18.69
2018-05-18T02:38:35.317Z,18.69
2018-05-18T02:39:35.285Z,18.67
2018-05-18T02:40:37.712Z,18.67
2018-05-18T02:41:35.319Z,18.68
2018-05-18T02:42:42.546Z,18.67
2018-05-18T02:43:35.424Z,18.68
2018-05-18T02:44:35.462Z,18.66
2018-05-18T02:45:35.440Z,18.67
2018-05-18T02:46:35.350Z,18.67
2018-05-18T02:47:35.401Z,18.68
2018-05-18T02:48:37.711Z,18.66
2018-05-18T02:49:35.377Z,18.69
2018-05-18T02:50:35.346Z,18.66
2018-05-18T02:51:37.337Z,18.66
2018-05-18T02:52:35.485Z,18.68
2018-05-18T02:53:35.399Z,18.66
2018-05-18T02:54:35.433Z,18.65
2018-05-18T02:55:35.343Z,18.66
2018-05-18T02:56:35.302Z,18.66
2018-05-18T02:57:35.519Z,18.67
2018-05-18T02:58:35.426Z,18.67
2018-05-18T02:59:35.300Z,18.66
2018-05-18T03:00:35.456Z,18.66
2018-05-18T03:01:35.437Z,18.67
2018-05-18T03:02:35.320Z,18.66
2018-05-18T03:03:35.473Z,18.65
2018-05-18T03:04:35.424Z,18.65
2018-05-18T03:05:35.725Z,18.66
2018-05-18T03:06:35.714Z,18.65
2018-05-18T03:07:36.326Z,18.66
2018-05-18T03:08:35.190Z,18.65
2018-05-18T03:09:35.164Z,18.64
2018-05-18T03:10:35.950Z,18.66
2018-05-18T03:11:35.618Z,18.66
2018-05-18T03:12:35.629Z,18.66
2018-05-18T03:13:35.609Z,18.65
2018-05-18T03:14:35.666Z,18.64
2018-05-18T03:15:35.701Z,18.68
2018-05-18T03:16:35.619Z,18.67
2018-05-18T03:17:35.918Z,18.66
2018-05-18T03:18:35.414Z,18.66
2018-05-18T03:19:35.318Z,18.65
2018-05-18T03:20:35.172Z,18.66
2018-05-18T03:21:35.236Z,18.65
2018-05-18T03:22:35.404Z,18.66
2018-05-18T03:23:35.238Z,18.65
2018-05-18T03:24:35.204Z,18.66
2018-05-18T03:25:35.435Z,18.65
2018-05-18T03:26:35.203Z,18.66
2018-05-18T03:27:35.147Z,18.66
2018-05-18T03:28:35.232Z,18.66
2018-05-18T03:29:35.351Z,18.65
2018-05-18T03:30:35.375Z,18.65
2018-05-18T03:31:35.282Z,18.65
2018-05-18T03:32:35.360Z,18.65
2018-05-18T03:33:35.378Z,18.66
2018-05-18T03:34:35.228Z,18.67
2018-05-18T03:35:35.332Z,18.64
2018-05-18T03:36:35.247Z,18.66
2018-05-18T03:37:35.463Z,18.66
2018-05-18T03:38:35.440Z,18.65
2018-05-18T03:39:35.272Z,18.62
2018-05-18T03:40:35.147Z,18.66
2018-05-18T03:41:35.313Z,18.65
2018-05-18T03:42:35.398Z,18.62
2018-05-18T03:43:35.502Z,18.65
2018-05-18T03:44:35.370Z,18.63
2018-05-18T03:45:35.331Z,18.64
2018-05-18T03:46:35.279Z,18.64
2018-05-18T03:47:35.196Z,18.63
2018-05-18T03:48:35.348Z,18.65
2018-05-18T03:49:35.269Z,18.63
2018-05-18T03:50:35.423Z,18.66
2018-05-18T03:51:35.359Z,18.63
2018-05-18T03:52:35.349Z,18.65
2018-05-18T03:53:35.406Z,18.63
2018-05-18T03:54:35.347Z,18.66
2018-05-18T03:55:35.296Z,18.64
2018-05-18T03:56:35.491Z,18.63
2018-05-18T03:57:35.341Z,18.64
2018-05-18T03:58:35.176Z,18.63
2018-05-18T03:59:35.339Z,18.66
2018-05-18T04:00:35.345Z,18.66
2018-05-18T04:01:35.151Z,18.64
2018-05-18T04:02:35.407Z,18.64
2018-05-18T04:03:35.419Z,18.62
2018-05-18T04:04:35.319Z,18.63
2018-05-18T04:05:35.286Z,18.62
2018-05-18T04:06:35.240Z,18.63
2018-05-18T04:07:35.174Z,18.63
2018-05-18T04:08:35.389Z,18.64
2018-05-18T04:09:35.455Z,18.63
2018-05-18T04:10:35.381Z,18.64
2018-05-18T04:11:35.335Z,18.63
2018-05-18T04:12:35.302Z,18.65
2018-05-18T04:13:35.245Z,18.65
2018-05-18T04:14:35.392Z,18.63
2018-05-18T04:15:35.392Z,18.63
2018-05-18T04:16:35.149Z,18.63
2018-05-18T04:17:35.161Z,18.62
2018-05-18T04:18:35.358Z,18.66
2018-05-18T04:19:35.216Z,18.63
2018-05-18T04:20:35.385Z,18.62
2018-05-18T04:21:35.355Z,18.64
2018-05-18T04:22:35.234Z,18.66
2018-05-18T04:23:35.418Z,18.64
2018-05-18T04:24:35.568Z,18.65
2018-05-18T04:25:35.200Z,18.63
2018-05-18T04:26:35.202Z,18.63
2018-05-18T04:27:35.276Z,18.65
2018-05-18T04:28:35.158Z,18.62
2018-05-18T04:29:35.260Z,18.63
2018-05-18T04:30:35.472Z,18.65
2018-05-18T04:31:35.356Z,18.65
2018-05-18T04:32:35.240Z,18.63
2018-05-18T04:33:35.322Z,18.63
2018-05-18T04:34:35.183Z,18.65
2018-05-18T04:35:35.432Z,18.63
2018-05-18T04:36:35.396Z,18.64
2018-05-18T04:37:35.436Z,18.64
2018-05-18T04:38:35.471Z,18.63
2018-05-18T04:39:35.410Z,18.65
2018-05-18T04:40:35.325Z,18.64
2018-05-18T04:41:35.411Z,18.62
2018-05-18T04:42:35.400Z,18.64
2018-05-18T04:43:35.299Z,18.66
2018-05-18T04:44:35.363Z,18.64
2018-05-18T04:45:35.236Z,18.64
2018-05-18T04:46:35.434Z,18.63
2018-05-18T04:47:35.492Z,18.62
2018-05-18T04:48:35.337Z,18.62
2018-05-18T04:49:35.228Z,18.63
2018-05-18T04:50:35.384Z,18.63
2018-05-18T04:51:35.203Z,18.64
2018-05-18T04:52:35.186Z,18.64
2018-05-18T04:53:35.279Z,18.64
2018-05-18T04:54:35.216Z,18.62
2018-05-18T04:55:35.302Z,18.63
2018-05-18T04:56:35.391Z,18.64
2018-05-18T04:57:35.319Z,18.62
2018-05-18T04:58:35.310Z,18.65
2018-05-18T04:59:35.360Z,18.63
2018-05-18T05:00:35.328Z,18.63
2018-05-18T05:01:35.116Z,18.64
2018-05-18T05:02:35.280Z,18.63
2018-05-18T05:03:35.386Z,18.64
2018-05-18T05:04:35.311Z,18.65
2018-05-18T05:05:35.706Z,18.62
2018-05-18T05:06:35.341Z,18.64
2018-05-18T05:07:35.370Z,18.62
2018-05-18T05:08:35.460Z,18.64
2018-05-18T05:09:35.311Z,18.63
2018-05-18T05:10:45.404Z,18.64
2018-05-18T05:11:35.470Z,18.64
2018-05-18T05:12:35.569Z,18.64
2018-05-18T05:13:35.223Z,18.63
2018-05-18T05:14:35.353Z,18.65
2018-05-18T05:15:35.281Z,18.63
2018-05-18T05:16:35.182Z,18.63
2018-05-18T05:17:35.353Z,18.64
2018-05-18T05:18:35.425Z,18.62
2018-05-18T05:19:35.451Z,18.64
2018-05-18T05:20:35.274Z,18.63
2018-05-18T05:21:35.491Z,18.63
2018-05-18T05:22:35.169Z,18.62
2018-05-18T05:23:35.511Z,18.63
2018-05-18T05:24:35.296Z,18.64
2018-05-18T05:25:35.246Z,18.64
2018-05-18T05:26:35.087Z,18.63
2018-05-18T05:27:35.395Z,18.62
2018-05-18T05:28:35.172Z,18.62
2018-05-18T05:29:35.424Z,18.62
2018-05-18T05:30:35.781Z,18.62
2018-05-18T05:31:35.306Z,18.65
2018-05-18T05:32:35.452Z,18.65
2018-05-18T05:33:35.354Z,18.68
2018-05-18T05:34:35.417Z,18.69
2018-05-18T05:35:35.155Z,18.72
2018-05-18T05:36:35.511Z,18.76
2018-05-18T05:37:35.288Z,18.78
2018-05-18T05:38:35.327Z,18.81
2018-05-18T05:39:35.219Z,18.8
2018-05-18T05:40:35.211Z,18.82
2018-05-18T05:41:35.353Z,18.84
2018-05-18T05:42:35.261Z,18.84
2018-05-18T05:43:35.420Z,18.83
2018-05-18T05:44:35.172Z,18.87
2018-05-18T05:45:35.141Z,18.86
2018-05-18T05:46:35.353Z,18.87
2018-05-18T05:47:35.427Z,18.88
2018-05-18T05:48:35.323Z,18.89
2018-05-18T05:49:35.343Z,18.93
2018-05-18T05:50:35.306Z,18.88
2018-05-18T05:51:35.296Z,18.89
2018-05-18T05:52:35.312Z,18.91
2018-05-18T05:53:35.101Z,18.94
2018-05-18T05:54:35.393Z,18.94
2018-05-18T05:55:35.335Z,18.94
2018-05-18T05:56:35.242Z,18.91
2018-05-18T05:57:35.206Z,18.88
2018-05-18T05:58:35.927Z,18.91
2018-05-18T05:59:35.351Z,18.93
2018-05-18T06:00:35.327Z,18.93
2018-05-18T06:01:35.358Z,18.89
2018-05-18T06:02:35.175Z,18.89
2018-05-18T06:03:35.270Z,18.89
2018-05-18T06:04:35.363Z,18.88
2018-05-18T06:05:35.313Z,18.94
2018-05-18T06:06:35.570Z,18.95
2018-05-18T06:07:35.250Z,18.96
2018-05-18T06:08:35.132Z,18.96
2018-05-18T06:09:35.426Z,18.98
2018-05-18T06:10:35.569Z,18.96
2018-05-18T06:11:35.314Z,18.98
2018-05-18T06:12:35.416Z,18.99
2018-05-18T06:13:35.220Z,18.98
2018-05-18T06:14:35.359Z,18.98
2018-05-18T06:15:35.189Z,18.97
2018-05-18T06:16:35.222Z,18.98
2018-05-18T06:17:35.567Z,18.98
2018-05-18T06:18:35.634Z,18.99
2018-05-18T06:19:35.797Z,19.02
2018-05-18T06:20:35.298Z,19.01
2018-05-18T06:21:35.283Z,18.98
2018-05-18T06:22:35.212Z,19
2018-05-18T06:23:35.151Z,19.02
2018-05-18T06:24:35.234Z,19.05
2018-05-18T06:25:35.393Z,19.08
2018-05-18T06:26:35.310Z,19.03
2018-05-18T06:27:45.208Z,19.09
2018-05-18T06:28:35.162Z,19.09
2018-05-18T06:29:35.260Z,19.1
2018-05-18T06:30:35.364Z,19.09
2018-05-18T06:31:35.400Z,19.11
2018-05-18T06:32:35.212Z,19.11
2018-05-18T06:33:35.238Z,19.09
2018-05-18T06:34:35.590Z,19.1
2018-05-18T06:35:35.259Z,19.12
2018-05-18T06:36:35.285Z,19.11
2018-05-18T06:37:35.174Z,19.13
2018-05-18T06:38:35.331Z,19.13
2018-05-18T06:39:35.188Z,19.12
2018-05-18T06:40:35.148Z,19.15
2018-05-18T06:41:35.271Z,19.15
2018-05-18T06:42:35.384Z,19.14
2018-05-18T06:43:35.196Z,19.14
2018-05-18T06:44:35.214Z,19.17
2018-05-18T06:45:35.555Z,19.13
2018-05-18T06:46:35.123Z,19.16
2018-05-18T06:47:35.372Z,19.16
2018-05-18T06:48:35.382Z,19.15
2018-05-18T06:49:35.394Z,19.15
2018-05-18T06:50:35.192Z,19.14
2018-05-18T06:51:35.331Z,19.17
2018-05-18T06:52:35.556Z,19.16
2018-05-18T06:53:35.206Z,19.17
2018-05-18T06:54:35.308Z,19.17
2018-05-18T06:55:35.358Z,19.22
2018-05-18T06:56:35.199Z,19.24
2018-05-18T06:57:35.423Z,19.21
2018-05-18T06:58:35.339Z,19.21
2018-05-18T06:59:35.400Z,19.2
2018-05-18T07:00:35.222Z,19.2
2018-05-18T07:01:35.123Z,19.18
2018-05-18T07:02:35.191Z,19.2
2018-05-18T07:03:35.216Z,19.18
2018-05-18T07:04:35.481Z,19.21
2018-05-18T07:05:35.152Z,19.21
2018-05-18T07:06:35.368Z,19.18
2018-05-18T07:07:35.258Z,19.18
2018-05-18T07:08:35.349Z,19.17
2018-05-18T07:09:35.338Z,19.21
2018-05-18T07:10:35.700Z,19.21
2018-05-18T07:11:35.321Z,19.22
2018-05-18T07:12:35.295Z,19.21
2018-05-18T07:13:35.380Z,19.24
2018-05-18T07:14:35.323Z,19.24
2018-05-18T07:15:35.352Z,19.24
2018-05-18T07:16:35.947Z,19.25
2018-05-18T07:17:35.365Z,19.27
2018-05-18T07:18:35.143Z,19.27
2018-05-18T07:19:35.492Z,19.27
2018-05-18T07:20:35.146Z,19.25
2018-05-18T07:21:35.215Z,19.27
2018-05-18T07:22:35.371Z,19.29
2018-05-18T07:23:35.294Z,19.31
2018-05-18T07:24:35.308Z,19.3
2018-05-18T07:25:35.230Z,19.29
2018-05-18T07:26:35.544Z,19.26
2018-05-18T07:27:35.242Z,19.25
2018-05-18T07:28:35.107Z,19.22
2018-05-18T07:29:35.322Z,19.22
2018-05-18T07:30:35.088Z,19.22
2018-05-18T07:31:35.255Z,19.21
2018-05-18T07:32:35.441Z,19.18
2018-05-18T07:33:35.402Z,19.17
2018-05-18T07:34:35.090Z,19.16
2018-05-18T07:35:35.336Z,19.14
2018-05-18T07:36:35.418Z,19.15
2018-05-18T07:37:35.192Z,19.16
2018-05-18T07:38:35.416Z,19.16
2018-05-18T07:39:35.156Z,19.13
2018-05-18T07:40:35.420Z,19.13
2018-05-18T07:41:35.356Z,19.13
2018-05-18T07:42:35.490Z,19.13
2018-05-18T07:43:35.327Z,19.13
2018-05-18T07:44:35.241Z,19.13
2018-05-18T07:45:35.269Z,19.12
2018-05-18T07:46:35.401Z,19.11
2018-05-18T07:47:35.364Z,19.11
2018-05-18T07:48:35.069Z,19.12
2018-05-18T07:49:35.303Z,19.12
2018-05-18T07:50:35.359Z,19.11
2018-05-18T07:51:35.260Z,19.12
2018-05-18T07:52:35.174Z,19.12
2018-05-18T07:53:35.770Z,19.12
2018-05-18T07:54:35.295Z,19.11
2018-05-18T07:55:35.513Z,19.1
2018-05-18T07:56:35.198Z,19.08
2018-05-18T07:57:35.240Z,19.06
2018-05-18T07:58:35.090Z,19.07
2018-05-18T07:59:35.780Z,19.09
2018-05-18T08:00:35.284Z,19.1
2018-05-18T08:01:35.221Z,19.13
2018-05-18T08:02:35.243Z,19.13
2018-05-18T08:03:35.356Z,19.13
2018-05-18T08:04:35.330Z,19.13
2018-05-18T08:05:35.101Z,19.15
2018-05-18T08:06:35.053Z,19.15
2018-05-18T08:07:35.124Z,19.17
2018-05-18T08:08:35.322Z,19.17
2018-05-18T08:09:35.970Z,19.13
2018-05-18T08:10:36.117Z,19.14
2018-05-18T08:11:35.869Z,19.17
2018-05-18T08:12:35.850Z,19.14
2018-05-18T08:13:36.100Z,19.14
2018-05-18T08:14:35.996Z,19.15
2018-05-18T08:15:35.784Z,19.13
2018-05-18T08:16:35.936Z,19.16
2018-05-18T08:17:35.994Z,19.15
2018-05-18T08:18:35.802Z,19.15
2018-05-18T08:19:35.877Z,19.16
2018-05-18T08:20:35.843Z,19.15
2018-05-18T08:21:36.111Z,19.17
2018-05-18T08:22:35.835Z,19.16
2018-05-18T08:23:35.760Z,19.13
2018-05-18T08:24:35.776Z,19.14
2018-05-18T08:25:35.891Z,19.15
2018-05-18T08:26:36.004Z,19.15
2018-05-18T08:27:36.074Z,19.16
2018-05-18T08:28:35.782Z,19.15
2018-05-18T08:29:36.047Z,19.12
2018-05-18T08:30:35.924Z,19.14
2018-05-18T08:31:36.077Z,19.13
2018-05-18T08:32:35.879Z,19.13
2018-05-18T08:33:35.792Z,19.14
2018-05-18T08:34:35.923Z,19.13
2018-05-18T08:35:35.902Z,19.13
2018-05-18T08:36:35.898Z,19.15
2018-05-18T08:37:35.888Z,19.11
2018-05-18T08:38:35.847Z,19.11
2018-05-18T08:39:35.098Z,19.11
2018-05-18T08:40:35.270Z,19.1
2018-05-18T08:41:35.216Z,19.09
2018-05-18T08:42:35.176Z,19.07
2018-05-18T08:43:35.226Z,19.09
2018-05-18T08:44:35.279Z,19.08
2018-05-18T08:45:35.281Z,19.1
2018-05-18T08:46:35.117Z,19.07
2018-05-18T08:47:35.914Z,19.07
2018-05-18T08:48:35.183Z,19.06
2018-05-18T08:49:35.515Z,19.05
2018-05-18T08:50:35.296Z,19.05
2018-05-18T08:51:45.253Z,19.03
2018-05-18T08:52:35.265Z,19.03
2018-05-18T08:53:35.186Z,19.03
2018-05-18T08:54:35.347Z,19.05
2018-05-18T08:55:35.283Z,19.05
2018-05-18T08:56:35.235Z,19.03
2018-05-18T08:57:35.242Z,19.01
2018-05-18T08:58:35.146Z,19.03
2018-05-18T08:59:35.421Z,19.02
2018-05-18T09:00:35.568Z,19.05
2018-05-18T09:01:35.190Z,19.05
2018-05-18T09:02:35.139Z,19.03
2018-05-18T09:03:35.210Z,19.02
2018-05-18T09:04:35.413Z,19.02
2018-05-18T09:05:35.355Z,19.01
2018-05-18T09:06:35.386Z,19
2018-05-18T09:07:35.090Z,19.03
2018-05-18T09:08:35.208Z,19.03
2018-05-18T09:09:35.216Z,19.02
2018-05-18T09:10:35.237Z,19.03
2018-05-18T09:11:35.321Z,19.02
2018-05-18T09:12:35.156Z,19.05
2018-05-18T09:13:35.321Z,19.02
2018-05-18T09:14:35.278Z,19.02
2018-05-18T09:15:35.185Z,19.01
2018-05-18T09:16:35.132Z,19.02
2018-05-18T09:17:35.247Z,19.01
2018-05-18T09:18:35.153Z,19
2018-05-18T09:19:35.097Z,19.01
2018-05-18T09:20:35.191Z,19.02
2018-05-18T09:21:35.354Z,19.02
2018-05-18T09:22:35.143Z,19.01
2018-05-18T09:23:35.174Z,19.01
2018-05-18T09:24:35.299Z,18.99
2018-05-18T09:25:35.103Z,19.01
2018-05-18T09:26:35.199Z,18.99
2018-05-18T09:27:35.341Z,19.01
2018-05-18T09:28:35.217Z,19
2018-05-18T09:29:35.355Z,18.98
2018-05-18T09:30:35.290Z,18.99
2018-05-18T09:31:35.277Z,18.99
2018-05-18T09:32:35.226Z,18.99
2018-05-18T09:33:35.351Z,18.98
2018-05-18T09:34:35.025Z,18.99
2018-05-18T09:35:35.215Z,18.98
2018-05-18T09:36:35.096Z,18.99
2018-05-18T09:37:35.286Z,18.99
2018-05-18T09:38:35.049Z,18.99
2018-05-18T09:39:35.249Z,18.98
2018-05-18T09:40:35.119Z,18.96
2018-05-18T09:41:35.111Z,18.98
2018-05-18T09:42:35.252Z,18.96
2018-05-18T09:43:35.191Z,18.96
2018-05-18T09:44:35.258Z,18.97
2018-05-18T09:45:35.170Z,18.94
2018-05-18T09:46:35.164Z,18.95
2018-05-18T09:47:35.134Z,18.97
2018-05-18T09:48:35.350Z,18.98
2018-05-18T09:49:35.319Z,18.95
2018-05-18T09:50:35.301Z,18.95
2018-05-18T09:51:35.325Z,18.98
2018-05-18T09:52:35.088Z,18.97
2018-05-18T09:53:35.086Z,18.95
2018-05-18T09:54:35.937Z,18.95
2018-05-18T09:55:36.256Z,18.96
2018-05-18T09:56:35.181Z,18.94
2018-05-18T09:57:35.291Z,18.95
2018-05-18T09:58:35.249Z,18.94
2018-05-18T09:59:35.230Z,18.95
2018-05-18T10:00:35.688Z,18.96
2018-05-18T10:01:35.005Z,18.97
2018-05-18T10:02:35.312Z,18.95
2018-05-18T10:03:35.085Z,18.96
2018-05-18T10:04:35.238Z,18.94
2018-05-18T10:05:35.135Z,18.96
2018-05-18T10:06:35.110Z,18.94
2018-05-18T10:07:35.128Z,18.94
2018-05-18T10:08:35.244Z,18.94
2018-05-18T10:09:35.255Z,18.92
2018-05-18T10:10:35.153Z,18.94
2018-05-18T10:11:35.114Z,18.93
2018-05-18T10:12:35.085Z,18.91
2018-05-18T10:13:35.292Z,18.93
2018-05-18T10:14:35.251Z,18.88
2018-05-18T10:15:35.317Z,18.92
2018-05-18T10:16:35.115Z,18.93
2018-05-18T10:17:35.325Z,18.93
2018-05-18T10:18:35.560Z,18.89
2018-05-18T10:19:35.263Z,18.91
2018-05-18T10:20:35.064Z,18.92
2018-05-18T10:21:35.049Z,18.91
2018-05-18T10:22:35.089Z,18.88
2018-05-18T10:23:35.235Z,18.89
2018-05-18T10:24:35.271Z,18.91
2018-05-18T10:25:35.055Z,18.91
2018-05-18T10:26:35.249Z,18.92
2018-05-18T10:27:35.117Z,18.89
2018-05-18T10:28:35.381Z,18.92
2018-05-18T10:29:35.337Z,18.88
2018-05-18T10:30:35.032Z,18.91
2018-05-18T10:31:35.259Z,18.89
2018-05-18T10:32:35.286Z,18.91
2018-05-18T10:33:35.167Z,18.88
2018-05-18T10:34:35.286Z,18.89
2018-05-18T10:35:35.153Z,18.92
2018-05-18T10:36:35.097Z,18.89
2018-05-18T10:37:35.204Z,18.88
2018-05-18T10:38:35.284Z,18.88
2018-05-18T10:39:45.682Z,18.88
2018-05-18T10:40:35.284Z,18.88
2018-05-18T10:41:35.084Z,18.88
2018-05-18T10:42:35.090Z,18.88
2018-05-18T10:43:35.232Z,18.88
2018-05-18T10:44:35.260Z,18.88
2018-05-18T10:45:35.222Z,18.88
2018-05-18T10:46:35.173Z,18.86
2018-05-18T10:47:35.154Z,18.86
2018-05-18T10:48:35.311Z,18.88
2018-05-18T10:49:35.216Z,18.86
2018-05-18T10:50:35.254Z,18.87
2018-05-18T10:51:35.141Z,18.86
2018-05-18T10:52:35.158Z,18.87
2018-05-18T10:53:35.277Z,18.88
2018-05-18T10:54:35.319Z,18.87
2018-05-18T10:55:45.139Z,18.88
2018-05-18T10:56:35.349Z,18.89
2018-05-18T10:57:35.196Z,18.92
2018-05-18T10:58:35.509Z,18.96
2018-05-18T10:59:35.262Z,18.94
2018-05-18T11:00:35.285Z,18.94
2018-05-18T11:01:35.261Z,18.98
2018-05-18T11:02:35.177Z,18.98
2018-05-18T11:03:35.134Z,18.97
2018-05-18T11:04:35.158Z,18.98
2018-05-18T11:05:35.045Z,18.98
2018-05-18T11:06:35.236Z,18.97
2018-05-18T11:07:35.272Z,18.99
2018-05-18T11:08:35.144Z,18.98
2018-05-18T11:09:35.274Z,19.01
2018-05-18T11:10:35.196Z,19.02
2018-05-18T11:11:35.079Z,19.03
2018-05-18T11:12:35.222Z,19.03
2018-05-18T11:13:35.277Z,19.05
2018-05-18T11:14:35.322Z,19.05
2018-05-18T11:15:35.331Z,19.05
2018-05-18T11:16:35.239Z,19.06
2018-05-18T11:17:35.125Z,19.06
2018-05-18T11:18:35.254Z,19.01
2018-05-18T11:19:35.175Z,19.03
2018-05-18T11:20:35.175Z,19.05
2018-05-18T11:21:35.147Z,19.05
2018-05-18T11:22:35.261Z,19.05
2018-05-18T11:23:35.197Z,19.05
2018-05-18T11:24:35.118Z,19.06
2018-05-18T11:25:35.333Z,19.03
2018-05-18T11:26:35.058Z,19.02
2018-05-18T11:27:35.298Z,19.03
2018-05-18T11:28:35.154Z,19.02
2018-05-18T11:29:35.034Z,19.01
2018-05-18T11:30:35.145Z,19.02
2018-05-18T11:31:35.117Z,19.03
2018-05-18T11:32:35.151Z,19
2018-05-18T11:33:35.142Z,19
2018-05-18T11:34:35.234Z,19.01
2018-05-18T11:35:35.074Z,19.03
2018-05-18T11:36:35.340Z,19.01
2018-05-18T11:37:35.263Z,19.01
2018-05-18T11:38:35.017Z,19.01
2018-05-18T11:39:35.221Z,19
2018-05-18T11:40:35.199Z,19.01
2018-05-18T11:41:35.240Z,19.01
2018-05-18T11:42:35.198Z,19
2018-05-18T11:43:35.127Z,18.99
2018-05-18T11:44:35.040Z,18.99
2018-05-18T11:45:35.255Z,19
2018-05-18T11:46:35.294Z,19.01
2018-05-18T11:47:34.917Z,19
2018-05-18T11:48:35.341Z,18.97
2018-05-18T11:49:35.112Z,18.96
2018-05-18T11:50:35.249Z,18.96
2018-05-18T11:51:35.044Z,18.95
2018-05-18T11:52:35.141Z,18.95
2018-05-18T11:53:35.294Z,18.96
2018-05-18T11:54:35.660Z,18.93
2018-05-18T11:55:35.313Z,18.94
2018-05-18T11:56:35.048Z,18.94
2018-05-18T11:57:35.172Z,18.94
2018-05-18T11:58:35.315Z,18.93
2018-05-18T11:59:35.287Z,18.94
2018-05-18T12:00:35.319Z,18.93
2018-05-18T12:01:35.105Z,18.94
2018-05-18T12:02:35.382Z,18.94
2018-05-18T12:03:35.133Z,18.93
2018-05-18T12:04:35.092Z,18.93
2018-05-18T12:05:35.097Z,18.92
2018-05-18T12:06:35.204Z,18.92
2018-05-18T12:07:35.230Z,18.92
2018-05-18T12:08:35.630Z,18.89
2018-05-18T12:09:35.155Z,18.93
2018-05-18T12:10:35.157Z,18.92
2018-05-18T12:11:35.271Z,18.91
2018-05-18T12:12:35.251Z,18.91
2018-05-18T12:13:35.091Z,18.91
2018-05-18T12:14:35.064Z,18.88
2018-05-18T12:15:35.298Z,18.93
2018-05-18T12:16:35.124Z,18.93
2018-05-18T12:17:35.120Z,18.91
2018-05-18T12:18:35.109Z,18.91
2018-05-18T12:19:35.276Z,18.88
2018-05-18T12:20:35.286Z,18.89
2018-05-18T12:21:35.483Z,18.88
2018-05-18T12:22:35.280Z,18.91
2018-05-18T12:23:35.304Z,18.88
2018-05-18T12:24:35.294Z,18.91
2018-05-18T12:25:35.350Z,18.91
2018-05-18T12:26:35.310Z,18.87
2018-05-18T12:27:35.306Z,18.88
2018-05-18T12:28:35.316Z,18.88
2018-05-18T12:29:35.275Z,18.88
2018-05-18T12:30:35.388Z,18.88
2018-05-18T12:31:35.941Z,18.88
2018-05-18T12:32:35.281Z,18.88
2018-05-18T12:33:35.373Z,18.86
2018-05-18T12:34:35.371Z,18.86
2018-05-18T12:35:35.352Z,18.86
2018-05-18T12:36:35.102Z,18.88
2018-05-18T12:37:35.416Z,18.92
2018-05-18T12:38:35.394Z,18.94
2018-05-18T12:39:35.362Z,18.93
2018-05-18T12:40:35.409Z,18.94
2018-05-18T12:41:35.439Z,18.95
2018-05-18T12:42:35.421Z,18.95
2018-05-18T12:43:35.358Z,18.96
2018-05-18T12:44:35.867Z,18.98
2018-05-18T12:45:35.439Z,18.98
2018-05-18T12:46:35.429Z,19.01
2018-05-18T12:47:35.458Z,19.01
2018-05-18T12:48:35.459Z,19.05
2018-05-18T12:49:35.473Z,19.03
2018-05-18T12:50:35.093Z,19.07
2018-05-18T12:51:35.490Z,19.06
2018-05-18T12:52:35.428Z,19.05
2018-05-18T12:53:35.433Z,19.03
2018-05-18T12:54:35.026Z,19.02